sensor_id;sensor_type;location;lat;lon;timestamp;pressure;altitude;pressure_sealevel;temperature
68027;BMP180;54819;48.030;14.710;2024-01-15T00:00:17;96210.40;;;-3.40
68027;BMP180;54819;48.030;14.710;2024-01-15T00:02:44;96200.60;;;-3.30
68027;BMP180;54819;48.030;14.710;2024-01-15T00:05:10;96205.00;;;-3.20
68027;BMP180;54819;48.030;14.710;2024-01-15T00:07:37;96196.60;;;-3.10
68027;BMP180;54819;48.030;14.710;2024-01-15T00:10:04;96190.00;;;-3.10
68027;BMP180;54819;48.030;14.710;2024-01-15T00:12:31;96183.40;;;-3.00
68027;BMP180;54819;48.030;14.710;2024-01-15T00:14:57;96177.20;;;-2.90
68027;BMP180;54819;48.030;14.710;2024-01-15T00:17:24;96174.60;;;-2.90
68027;BMP180;54819;48.030;14.710;2024-01-15T00:19:51;96172.80;;;-2.80
68027;BMP180;54819;48.030;14.710;2024-01-15T00:22:18;96180.20;;;-2.78
68027;BMP180;54819;48.030;14.710;2024-01-15T00:24:45;96175.60;;;-2.70
68027;BMP180;54819;48.030;14.710;2024-01-15T00:27:12;96169.60;;;-2.70
68027;BMP180;54819;48.030;14.710;2024-01-15T00:29:38;96157.60;;;-2.64
68027;BMP180;54819;48.030;14.710;2024-01-15T00:32:05;96156.80;;;-2.60
68027;BMP180;54819;48.030;14.710;2024-01-15T00:34:32;96158.60;;;-2.60
68027;BMP180;54819;48.030;14.710;2024-01-15T00:36:59;96176.20;;;-2.60
68027;BMP180;54819;48.030;14.710;2024-01-15T00:39:25;96179.40;;;-2.50
68027;BMP180;54819;48.030;14.710;2024-01-15T00:41:52;96176.00;;;-2.50
68027;BMP180;54819;48.030;14.710;2024-01-15T00:44:19;96173.60;;;-2.42
68027;BMP180;54819;48.030;14.710;2024-01-15T00:46:46;96178.60;;;-2.40
68027;BMP180;54819;48.030;14.710;2024-01-15T00:49:13;96186.00;;;-2.32
68027;BMP180;54819;48.030;14.710;2024-01-15T00:51:41;96174.00;;;-2.30
68027;BMP180;54819;48.030;14.710;2024-01-15T00:54:08;96180.00;;;-2.30
68027;BMP180;54819;48.030;14.710;2024-01-15T00:56:35;96171.80;;;-2.20
68027;BMP180;54819;48.030;14.710;2024-01-15T00:59:02;96171.00;;;-2.20
68027;BMP180;54819;48.030;14.710;2024-01-15T01:01:28;96172.80;;;-2.18
68027;BMP180;54819;48.030;14.710;2024-01-15T01:03:55;96161.80;;;-2.12
68027;BMP180;54819;48.030;14.710;2024-01-15T01:06:22;96170.20;;;-2.10
68027;BMP180;54819;48.030;14.710;2024-01-15T01:08:49;96172.60;;;-2.10
68027;BMP180;54819;48.030;14.710;2024-01-15T01:11:16;96169.40;;;-2.10
68027;BMP180;54819;48.030;14.710;2024-01-15T01:13:43;96174.60;;;-2.10
68027;BMP180;54819;48.030;14.710;2024-01-15T01:16:09;96176.20;;;-2.02
68027;BMP180;54819;48.030;14.710;2024-01-15T01:18:36;96175.60;;;-2.00
68027;BMP180;54819;48.030;14.710;2024-01-15T01:21:03;96168.20;;;-2.00
68027;BMP180;54819;48.030;14.710;2024-01-15T01:23:30;96167.20;;;-2.00
68027;BMP180;54819;48.030;14.710;2024-01-15T01:25:57;96156.60;;;-2.00
68027;BMP180;54819;48.030;14.710;2024-01-15T01:28:24;96153.20;;;-1.98
68027;BMP180;54819;48.030;14.710;2024-01-15T01:30:50;96146.40;;;-1.90
68027;BMP180;54819;48.030;14.710;2024-01-15T01:33:17;96163.40;;;-1.90
68027;BMP180;54819;48.030;14.710;2024-01-15T01:35:44;96156.20;;;-1.90
68027;BMP180;54819;48.030;14.710;2024-01-15T01:38:12;96169.40;;;-1.90
68027;BMP180;54819;48.030;14.710;2024-01-15T01:40:39;96167.20;;;-1.80
68027;BMP180;54819;48.030;14.710;2024-01-15T01:43:05;96166.60;;;-1.80
68027;BMP180;54819;48.030;14.710;2024-01-15T01:45:32;96169.00;;;-1.80
68027;BMP180;54819;48.030;14.710;2024-01-15T01:48:00;96167.00;;;-1.80
68027;BMP180;54819;48.030;14.710;2024-01-15T01:50:29;96162.80;;;-1.74
68027;BMP180;54819;48.030;14.710;2024-01-15T01:52:58;96165.40;;;-1.70
68027;BMP180;54819;48.030;14.710;2024-01-15T01:55:26;96160.40;;;-1.70
68027;BMP180;54819;48.030;14.710;2024-01-15T01:57:54;96153.20;;;-1.70
68027;BMP180;54819;48.030;14.710;2024-01-15T02:00:22;96155.40;;;-1.70
68027;BMP180;54819;48.030;14.710;2024-01-15T02:02:49;96163.00;;;-1.62
68027;BMP180;54819;48.030;14.710;2024-01-15T02:05:18;96151.80;;;-1.60
68027;BMP180;54819;48.030;14.710;2024-01-15T02:07:46;96162.00;;;-1.60
68027;BMP180;54819;48.030;14.710;2024-01-15T02:10:13;96164.80;;;-1.58
68027;BMP180;54819;48.030;14.710;2024-01-15T02:12:42;96159.60;;;-1.54
68027;BMP180;54819;48.030;14.710;2024-01-15T02:15:09;96166.00;;;-1.50
68027;BMP180;54819;48.030;14.710;2024-01-15T02:17:56;96162.40;;;-1.50
68027;BMP180;54819;48.030;14.710;2024-01-15T02:20:24;96158.80;;;-1.50
68027;BMP180;54819;48.030;14.710;2024-01-15T02:22:52;96158.80;;;-1.40
68027;BMP180;54819;48.030;14.710;2024-01-15T02:25:18;96157.60;;;-1.40
68027;BMP180;54819;48.030;14.710;2024-01-15T02:27:46;96158.20;;;-1.40
68027;BMP180;54819;48.030;14.710;2024-01-15T02:30:13;96157.80;;;-1.40
68027;BMP180;54819;48.030;14.710;2024-01-15T02:32:40;96160.60;;;-1.30
68027;BMP180;54819;48.030;14.710;2024-01-15T02:35:07;96164.00;;;-1.30
68027;BMP180;54819;48.030;14.710;2024-01-15T02:37:33;96159.20;;;-1.30
68027;BMP180;54819;48.030;14.710;2024-01-15T02:40:00;96154.00;;;-1.30
68027;BMP180;54819;48.030;14.710;2024-01-15T02:42:27;96155.60;;;-1.20
68027;BMP180;54819;48.030;14.710;2024-01-15T02:44:53;96154.80;;;-1.22
68027;BMP180;54819;48.030;14.710;2024-01-15T02:47:20;96157.80;;;-1.10
68027;BMP180;54819;48.030;14.710;2024-01-15T02:49:47;96159.20;;;-1.10
68027;BMP180;54819;48.030;14.710;2024-01-15T02:52:13;96163.40;;;-1.00
68027;BMP180;54819;48.030;14.710;2024-01-15T02:54:41;96166.00;;;-0.90
68027;BMP180;54819;48.030;14.710;2024-01-15T02:57:08;96152.80;;;-0.82
68027;BMP180;54819;48.030;14.710;2024-01-15T02:59:34;96167.20;;;-0.80
68027;BMP180;54819;48.030;14.710;2024-01-15T03:02:01;96168.00;;;-0.70
68027;BMP180;54819;48.030;14.710;2024-01-15T03:04:28;96172.40;;;-0.70
68027;BMP180;54819;48.030;14.710;2024-01-15T03:06:55;96176.40;;;-0.60
68027;BMP180;54819;48.030;14.710;2024-01-15T03:09:21;96171.80;;;-0.60
68027;BMP180;54819;48.030;14.710;2024-01-15T03:11:48;96180.80;;;-0.50
68027;BMP180;54819;48.030;14.710;2024-01-15T03:14:15;96169.20;;;-0.50
68027;BMP180;54819;48.030;14.710;2024-01-15T03:16:42;96172.80;;;-0.50
68027;BMP180;54819;48.030;14.710;2024-01-15T03:19:08;96157.00;;;-0.40
68027;BMP180;54819;48.030;14.710;2024-01-15T03:21:35;96158.40;;;-0.36
68027;BMP180;54819;48.030;14.710;2024-01-15T03:24:02;96158.20;;;-0.24
68027;BMP180;54819;48.030;14.710;2024-01-15T03:26:29;96158.40;;;-0.20
68027;BMP180;54819;48.030;14.710;2024-01-15T03:28:55;96160.40;;;-0.10
68027;BMP180;54819;48.030;14.710;2024-01-15T03:31:22;96161.00;;;0.00
68027;BMP180;54819;48.030;14.710;2024-01-15T03:33:49;96173.00;;;0.10
68027;BMP180;54819;48.030;14.710;2024-01-15T03:36:16;96168.80;;;0.22
68027;BMP180;54819;48.030;14.710;2024-01-15T03:38:42;96164.60;;;0.40
68027;BMP180;54819;48.030;14.710;2024-01-15T03:41:09;96160.20;;;0.58
68027;BMP180;54819;48.030;14.710;2024-01-15T03:43:36;96164.80;;;0.70
68027;BMP180;54819;48.030;14.710;2024-01-15T03:46:02;96173.80;;;0.80
68027;BMP180;54819;48.030;14.710;2024-01-15T03:48:31;96183.20;;;0.90
68027;BMP180;54819;48.030;14.710;2024-01-15T03:50:58;96181.40;;;1.00
68027;BMP180;54819;48.030;14.710;2024-01-15T03:53:24;96194.40;;;1.10
68027;BMP180;54819;48.030;14.710;2024-01-15T03:55:51;96209.40;;;1.20
68027;BMP180;54819;48.030;14.710;2024-01-15T03:58:18;96222.00;;;1.20
68027;BMP180;54819;48.030;14.710;2024-01-15T04:00:45;96220.20;;;1.10
68027;BMP180;54819;48.030;14.710;2024-01-15T04:03:12;96225.60;;;1.02
68027;BMP180;54819;48.030;14.710;2024-01-15T04:05:39;96232.60;;;1.00
68027;BMP180;54819;48.030;14.710;2024-01-15T04:08:05;96235.40;;;0.90
68027;BMP180;54819;48.030;14.710;2024-01-15T04:10:32;96238.40;;;0.86
68027;BMP180;54819;48.030;14.710;2024-01-15T04:12:59;96239.00;;;0.80
68027;BMP180;54819;48.030;14.710;2024-01-15T04:15:28;96239.60;;;0.80
68027;BMP180;54819;48.030;14.710;2024-01-15T04:17:55;96232.00;;;0.70
68027;BMP180;54819;48.030;14.710;2024-01-15T04:20:21;96238.40;;;0.70
68027;BMP180;54819;48.030;14.710;2024-01-15T04:22:52;96235.00;;;0.68
68027;BMP180;54819;48.030;14.710;2024-01-15T04:25:18;96238.80;;;0.60
68027;BMP180;54819;48.030;14.710;2024-01-15T04:27:45;96240.60;;;0.60
68027;BMP180;54819;48.030;14.710;2024-01-15T04:30:12;96233.20;;;0.60
68027;BMP180;54819;48.030;14.710;2024-01-15T04:32:39;96224.20;;;0.60
68027;BMP180;54819;48.030;14.710;2024-01-15T04:35:06;96219.40;;;0.60
68027;BMP180;54819;48.030;14.710;2024-01-15T04:37:33;96218.00;;;0.60
68027;BMP180;54819;48.030;14.710;2024-01-15T04:40:00;96223.00;;;0.60
68027;BMP180;54819;48.030;14.710;2024-01-15T04:42:26;96226.20;;;0.60
68027;BMP180;54819;48.030;14.710;2024-01-15T04:44:53;96231.20;;;0.62
68027;BMP180;54819;48.030;14.710;2024-01-15T04:47:20;96227.80;;;0.60
68027;BMP180;54819;48.030;14.710;2024-01-15T04:49:46;96236.20;;;0.60
68027;BMP180;54819;48.030;14.710;2024-01-15T04:52:15;96235.40;;;0.60
68027;BMP180;54819;48.030;14.710;2024-01-15T04:54:41;96227.00;;;0.64
68027;BMP180;54819;48.030;14.710;2024-01-15T04:57:08;96224.40;;;0.62
68027;BMP180;54819;48.030;14.710;2024-01-15T04:59:35;96217.20;;;0.64
68027;BMP180;54819;48.030;14.710;2024-01-15T05:02:01;96228.40;;;0.70
68027;BMP180;54819;48.030;14.710;2024-01-15T05:04:28;96240.60;;;0.62
68027;BMP180;54819;48.030;14.710;2024-01-15T05:06:55;96247.20;;;0.60
68027;BMP180;54819;48.030;14.710;2024-01-15T05:09:22;96245.80;;;0.60
68027;BMP180;54819;48.030;14.710;2024-01-15T05:11:48;96243.80;;;0.60
68027;BMP180;54819;48.030;14.710;2024-01-15T05:14:15;96241.40;;;0.60
68027;BMP180;54819;48.030;14.710;2024-01-15T05:16:49;96245.80;;;0.68
68027;BMP180;54819;48.030;14.710;2024-01-15T05:19:16;96247.80;;;0.70
68027;BMP180;54819;48.030;14.710;2024-01-15T05:21:43;96247.40;;;0.70
68027;BMP180;54819;48.030;14.710;2024-01-15T05:24:10;96257.60;;;0.70
68027;BMP180;54819;48.030;14.710;2024-01-15T05:26:37;96257.60;;;0.70
68027;BMP180;54819;48.030;14.710;2024-01-15T05:29:03;96259.00;;;0.70
68027;BMP180;54819;48.030;14.710;2024-01-15T05:31:30;96270.40;;;0.70
68027;BMP180;54819;48.030;14.710;2024-01-15T05:33:57;96272.60;;;0.70
68027;BMP180;54819;48.030;14.710;2024-01-15T05:36:24;96259.40;;;0.74
68027;BMP180;54819;48.030;14.710;2024-01-15T05:38:50;96261.80;;;0.80
68027;BMP180;54819;48.030;14.710;2024-01-15T05:41:17;96248.80;;;0.80
68027;BMP180;54819;48.030;14.710;2024-01-15T05:43:44;96248.80;;;0.80
68027;BMP180;54819;48.030;14.710;2024-01-15T05:46:10;96248.80;;;0.82
68027;BMP180;54819;48.030;14.710;2024-01-15T05:48:37;96247.40;;;0.90
68027;BMP180;54819;48.030;14.710;2024-01-15T05:51:04;96251.80;;;0.90
68027;BMP180;54819;48.030;14.710;2024-01-15T05:53:30;96253.20;;;1.00
68027;BMP180;54819;48.030;14.710;2024-01-15T05:55:57;96255.60;;;1.20
68027;BMP180;54819;48.030;14.710;2024-01-15T05:58:23;96260.40;;;1.22
68027;BMP180;54819;48.030;14.710;2024-01-15T06:00:50;96256.40;;;1.20
68027;BMP180;54819;48.030;14.710;2024-01-15T06:03:17;96255.20;;;1.20
68027;BMP180;54819;48.030;14.710;2024-01-15T06:05:44;96258.40;;;1.20
68027;BMP180;54819;48.030;14.710;2024-01-15T06:08:11;96263.20;;;1.20
68027;BMP180;54819;48.030;14.710;2024-01-15T06:10:37;96264.80;;;1.20
68027;BMP180;54819;48.030;14.710;2024-01-15T06:13:04;96266.20;;;1.16
68027;BMP180;54819;48.030;14.710;2024-01-15T06:15:30;96270.00;;;1.10
68027;BMP180;54819;48.030;14.710;2024-01-15T06:17:57;96269.40;;;1.10
68027;BMP180;54819;48.030;14.710;2024-01-15T06:20:24;96258.20;;;1.10
68027;BMP180;54819;48.030;14.710;2024-01-15T06:22:51;96261.40;;;1.10
68027;BMP180;54819;48.030;14.710;2024-01-15T06:25:17;96253.40;;;1.08
68027;BMP180;54819;48.030;14.710;2024-01-15T06:27:44;96252.40;;;1.10
68027;BMP180;54819;48.030;14.710;2024-01-15T06:30:11;96246.80;;;1.10
68027;BMP180;54819;48.030;14.710;2024-01-15T06:32:39;96246.80;;;1.10
68027;BMP180;54819;48.030;14.710;2024-01-15T06:35:06;96244.60;;;1.10
68027;BMP180;54819;48.030;14.710;2024-01-15T06:37:33;96241.60;;;1.10
68027;BMP180;54819;48.030;14.710;2024-01-15T06:39:59;96235.40;;;1.10
68027;BMP180;54819;48.030;14.710;2024-01-15T06:42:26;96237.40;;;1.20
68027;BMP180;54819;48.030;14.710;2024-01-15T06:44:53;96238.20;;;1.20
68027;BMP180;54819;48.030;14.710;2024-01-15T06:47:19;96230.00;;;1.20
68027;BMP180;54819;48.030;14.710;2024-01-15T06:49:46;96229.40;;;1.22
68027;BMP180;54819;48.030;14.710;2024-01-15T06:52:13;96227.60;;;1.20
68027;BMP180;54819;48.030;14.710;2024-01-15T06:54:40;96233.80;;;1.28
68027;BMP180;54819;48.030;14.710;2024-01-15T06:57:06;96234.80;;;1.30
68027;BMP180;54819;48.030;14.710;2024-01-15T06:59:34;96236.80;;;1.30
68027;BMP180;54819;48.030;14.710;2024-01-15T07:02:02;96232.80;;;1.30
68027;BMP180;54819;48.030;14.710;2024-01-15T07:04:29;96231.40;;;1.38
68027;BMP180;54819;48.030;14.710;2024-01-15T07:06:56;96233.00;;;1.40
68027;BMP180;54819;48.030;14.710;2024-01-15T07:09:22;96227.20;;;1.40
68027;BMP180;54819;48.030;14.710;2024-01-15T07:11:49;96231.20;;;1.44
68027;BMP180;54819;48.030;14.710;2024-01-15T07:14:16;96220.00;;;1.50
68027;BMP180;54819;48.030;14.710;2024-01-15T07:16:43;96224.60;;;1.50
68027;BMP180;54819;48.030;14.710;2024-01-15T07:19:14;96224.20;;;1.50
68027;BMP180;54819;48.030;14.710;2024-01-15T07:21:41;96226.00;;;1.60
68027;BMP180;54819;48.030;14.710;2024-01-15T07:24:10;96226.80;;;1.60
68027;BMP180;54819;48.030;14.710;2024-01-15T07:26:37;96231.20;;;1.60
68027;BMP180;54819;48.030;14.710;2024-01-15T07:29:04;96232.80;;;1.66
68027;BMP180;54819;48.030;14.710;2024-01-15T07:31:31;96232.00;;;1.70
68027;BMP180;54819;48.030;14.710;2024-01-15T07:33:58;96235.40;;;1.70
68027;BMP180;54819;48.030;14.710;2024-01-15T07:36:24;96224.60;;;1.78
68027;BMP180;54819;48.030;14.710;2024-01-15T07:38:51;96229.80;;;1.80
68027;BMP180;54819;48.030;14.710;2024-01-15T07:41:18;96223.60;;;1.80
68027;BMP180;54819;48.030;14.710;2024-01-15T07:43:45;96229.00;;;1.90
68027;BMP180;54819;48.030;14.710;2024-01-15T07:46:12;96215.20;;;1.90
68027;BMP180;54819;48.030;14.710;2024-01-15T07:48:39;96212.00;;;2.00
68027;BMP180;54819;48.030;14.710;2024-01-15T07:51:06;96228.00;;;2.00
68027;BMP180;54819;48.030;14.710;2024-01-15T07:53:32;96229.00;;;2.10
68027;BMP180;54819;48.030;14.710;2024-01-15T07:55:59;96232.00;;;2.10
68027;BMP180;54819;48.030;14.710;2024-01-15T07:58:26;96234.40;;;2.20
68027;BMP180;54819;48.030;14.710;2024-01-15T08:00:53;96222.40;;;2.18
68027;BMP180;54819;48.030;14.710;2024-01-15T08:03:19;96217.80;;;2.24
68027;BMP180;54819;48.030;14.710;2024-01-15T08:05:46;96215.40;;;2.30
68027;BMP180;54819;48.030;14.710;2024-01-15T08:08:13;96218.40;;;2.36
68027;BMP180;54819;48.030;14.710;2024-01-15T08:10:40;96213.60;;;2.40
68027;BMP180;54819;48.030;14.710;2024-01-15T08:13:07;96210.20;;;2.40
68027;BMP180;54819;48.030;14.710;2024-01-15T08:15:36;96210.80;;;2.50
68027;BMP180;54819;48.030;14.710;2024-01-15T08:18:03;96216.00;;;2.50
68027;BMP180;54819;48.030;14.710;2024-01-15T08:20:29;96217.00;;;2.60
68027;BMP180;54819;48.030;14.710;2024-01-15T08:22:57;96220.60;;;2.60
68027;BMP180;54819;48.030;14.710;2024-01-15T08:25:24;96219.80;;;2.70
68027;BMP180;54819;48.030;14.710;2024-01-15T08:27:50;96220.40;;;2.70
68027;BMP180;54819;48.030;14.710;2024-01-15T08:30:17;96219.80;;;2.80
68027;BMP180;54819;48.030;14.710;2024-01-15T08:32:47;96220.20;;;2.80
68027;BMP180;54819;48.030;14.710;2024-01-15T08:35:15;96216.00;;;2.90
68027;BMP180;54819;48.030;14.710;2024-01-15T08:37:42;96214.60;;;3.00
68027;BMP180;54819;48.030;14.710;2024-01-15T08:40:10;96218.60;;;3.00
68027;BMP180;54819;48.030;14.710;2024-01-15T08:42:37;96210.40;;;3.10
68027;BMP180;54819;48.030;14.710;2024-01-15T08:45:04;96209.40;;;3.18
68027;BMP180;54819;48.030;14.710;2024-01-15T08:47:32;96209.80;;;3.22
68027;BMP180;54819;48.030;14.710;2024-01-15T08:49:58;96208.20;;;3.30
68027;BMP180;54819;48.030;14.710;2024-01-15T08:52:25;96214.00;;;3.30
68027;BMP180;54819;48.030;14.710;2024-01-15T08:54:52;96210.60;;;3.40
68027;BMP180;54819;48.030;14.710;2024-01-15T08:57:19;96212.20;;;3.40
68027;BMP180;54819;48.030;14.710;2024-01-15T08:59:46;96215.80;;;3.48
68027;BMP180;54819;48.030;14.710;2024-01-15T09:02:13;96214.40;;;3.50
68027;BMP180;54819;48.030;14.710;2024-01-15T09:04:41;96211.40;;;3.50
68027;BMP180;54819;48.030;14.710;2024-01-15T09:07:08;96214.00;;;3.50
68027;BMP180;54819;48.030;14.710;2024-01-15T09:09:34;96207.20;;;3.56
68027;BMP180;54819;48.030;14.710;2024-01-15T09:12:02;96216.20;;;3.60
68027;BMP180;54819;48.030;14.710;2024-01-15T09:14:28;96209.60;;;3.60
68027;BMP180;54819;48.030;14.710;2024-01-15T09:17:04;96211.60;;;3.70
68027;BMP180;54819;48.030;14.710;2024-01-15T09:19:31;96213.80;;;3.70
68027;BMP180;54819;48.030;14.710;2024-01-15T09:21:59;96207.80;;;3.80
68027;BMP180;54819;48.030;14.710;2024-01-15T09:24:26;96204.20;;;3.86
68027;BMP180;54819;48.030;14.710;2024-01-15T09:26:54;96202.60;;;3.90
68027;BMP180;54819;48.030;14.710;2024-01-15T09:29:21;96199.60;;;4.00
68027;BMP180;54819;48.030;14.710;2024-01-15T09:31:50;96197.40;;;4.04
68027;BMP180;54819;48.030;14.710;2024-01-15T09:34:18;96194.80;;;4.10
68027;BMP180;54819;48.030;14.710;2024-01-15T09:36:45;96190.20;;;4.20
68027;BMP180;54819;48.030;14.710;2024-01-15T09:39:12;96187.40;;;4.20
68027;BMP180;54819;48.030;14.710;2024-01-15T09:41:39;96189.60;;;4.20
68027;BMP180;54819;48.030;14.710;2024-01-15T09:44:06;96187.40;;;4.20
68027;BMP180;54819;48.030;14.710;2024-01-15T09:46:35;96181.60;;;4.20
68027;BMP180;54819;48.030;14.710;2024-01-15T09:49:02;96177.80;;;4.20
68027;BMP180;54819;48.030;14.710;2024-01-15T09:51:31;96174.80;;;4.20
68027;BMP180;54819;48.030;14.710;2024-01-15T09:53:58;96183.60;;;4.26
68027;BMP180;54819;48.030;14.710;2024-01-15T09:56:25;96184.20;;;4.20
68027;BMP180;54819;48.030;14.710;2024-01-15T09:58:52;96178.20;;;4.20
68027;BMP180;54819;48.030;14.710;2024-01-15T10:01:23;96189.60;;;4.20
68027;BMP180;54819;48.030;14.710;2024-01-15T10:03:50;96180.80;;;4.12
68027;BMP180;54819;48.030;14.710;2024-01-15T10:06:17;96175.40;;;4.16
68027;BMP180;54819;48.030;14.710;2024-01-15T10:08:50;96185.20;;;4.12
68027;BMP180;54819;48.030;14.710;2024-01-15T10:11:17;96186.80;;;4.06
68027;BMP180;54819;48.030;14.710;2024-01-15T10:13:44;96189.60;;;4.00
68027;BMP180;54819;48.030;14.710;2024-01-15T10:16:13;96187.60;;;3.98
68027;BMP180;54819;48.030;14.710;2024-01-15T10:18:39;96185.20;;;3.96
68027;BMP180;54819;48.030;14.710;2024-01-15T10:21:07;96178.80;;;4.00
68027;BMP180;54819;48.030;14.710;2024-01-15T10:23:34;96185.00;;;3.92
68027;BMP180;54819;48.030;14.710;2024-01-15T10:26:05;96181.60;;;3.90
68027;BMP180;54819;48.030;14.710;2024-01-15T10:28:32;96177.80;;;3.88
68027;BMP180;54819;48.030;14.710;2024-01-15T10:31:00;96177.20;;;3.80
68027;BMP180;54819;48.030;14.710;2024-01-15T10:33:27;96176.20;;;3.80
68027;BMP180;54819;48.030;14.710;2024-01-15T10:35:56;96178.40;;;3.80
68027;BMP180;54819;48.030;14.710;2024-01-15T10:38:24;96175.60;;;3.72
68027;BMP180;54819;48.030;14.710;2024-01-15T10:40:52;96174.60;;;3.72
68027;BMP180;54819;48.030;14.710;2024-01-15T10:43:20;96175.00;;;3.78
68027;BMP180;54819;48.030;14.710;2024-01-15T10:45:49;96173.80;;;3.70
68027;BMP180;54819;48.030;14.710;2024-01-15T10:48:17;96173.40;;;3.70
68027;BMP180;54819;48.030;14.710;2024-01-15T10:50:45;96164.80;;;3.70
68027;BMP180;54819;48.030;14.710;2024-01-15T10:53:14;96162.00;;;3.80
68027;BMP180;54819;48.030;14.710;2024-01-15T10:55:43;96160.00;;;3.80
68027;BMP180;54819;48.030;14.710;2024-01-15T10:58:09;96152.40;;;3.90
68027;BMP180;54819;48.030;14.710;2024-01-15T11:00:37;96146.20;;;4.00
68027;BMP180;54819;48.030;14.710;2024-01-15T11:03:06;96160.60;;;4.20
68027;BMP180;54819;48.030;14.710;2024-01-15T11:05:42;96161.00;;;4.30
68027;BMP180;54819;48.030;14.710;2024-01-15T11:08:10;96150.40;;;4.40
68027;BMP180;54819;48.030;14.710;2024-01-15T11:10:48;96157.40;;;4.50
68027;BMP180;54819;48.030;14.710;2024-01-15T11:13:22;96155.20;;;4.50
68027;BMP180;54819;48.030;14.710;2024-01-15T11:18:35;96155.40;;;4.50
68027;BMP180;54819;48.030;14.710;2024-01-15T11:23:43;96145.20;;;4.50
68027;BMP180;54819;48.030;14.710;2024-01-15T11:26:43;96141.00;;;4.54
68027;BMP180;54819;48.030;14.710;2024-01-15T11:29:32;96138.60;;;4.60
68027;BMP180;54819;48.030;14.710;2024-01-15T11:32:07;96132.00;;;4.70
68027;BMP180;54819;48.030;14.710;2024-01-15T11:34:51;96126.80;;;4.70
68027;BMP180;54819;48.030;14.710;2024-01-15T11:37:19;96122.60;;;4.80
68027;BMP180;54819;48.030;14.710;2024-01-15T11:39:47;96122.40;;;4.80
68027;BMP180;54819;48.030;14.710;2024-01-15T11:42:14;96120.40;;;4.80
68027;BMP180;54819;48.030;14.710;2024-01-15T11:44:42;96119.60;;;4.90
68027;BMP180;54819;48.030;14.710;2024-01-15T11:47:10;96122.40;;;4.90
68027;BMP180;54819;48.030;14.710;2024-01-15T11:50:04;96119.60;;;4.98
68027;BMP180;54819;48.030;14.710;2024-01-15T11:52:34;96118.00;;;5.02
68027;BMP180;54819;48.030;14.710;2024-01-15T11:55:11;96115.00;;;5.10
68027;BMP180;54819;48.030;14.710;2024-01-15T11:57:45;96107.80;;;5.10
68027;BMP180;54819;48.030;14.710;2024-01-15T12:00:13;96107.20;;;5.18
68027;BMP180;54819;48.030;14.710;2024-01-15T12:02:42;96110.00;;;5.20
68027;BMP180;54819;48.030;14.710;2024-01-15T12:05:09;96110.80;;;5.20
68027;BMP180;54819;48.030;14.710;2024-01-15T12:07:39;96110.20;;;5.24
68027;BMP180;54819;48.030;14.710;2024-01-15T12:10:10;96102.00;;;5.30
68027;BMP180;54819;48.030;14.710;2024-01-15T12:12:49;96104.80;;;5.30
68027;BMP180;54819;48.030;14.710;2024-01-15T12:15:20;96096.60;;;5.40
68027;BMP180;54819;48.030;14.710;2024-01-15T12:17:47;96089.20;;;5.40
68027;BMP180;54819;48.030;14.710;2024-01-15T12:20:14;96085.60;;;5.40
68027;BMP180;54819;48.030;14.710;2024-01-15T12:22:42;96086.80;;;5.40
68027;BMP180;54819;48.030;14.710;2024-01-15T12:25:26;96083.00;;;5.40
68027;BMP180;54819;48.030;14.710;2024-01-15T12:27:54;96077.20;;;5.30
68027;BMP180;54819;48.030;14.710;2024-01-15T12:30:20;96078.00;;;5.30
68027;BMP180;54819;48.030;14.710;2024-01-15T12:32:48;96070.00;;;5.30
68027;BMP180;54819;48.030;14.710;2024-01-15T12:35:15;96073.80;;;5.30
68027;BMP180;54819;48.030;14.710;2024-01-15T12:37:42;96064.40;;;5.20
68027;BMP180;54819;48.030;14.710;2024-01-15T12:40:10;96068.00;;;5.20
68027;BMP180;54819;48.030;14.710;2024-01-15T12:42:37;96065.60;;;5.28
68027;BMP180;54819;48.030;14.710;2024-01-15T12:45:09;96057.00;;;5.30
68027;BMP180;54819;48.030;14.710;2024-01-15T12:47:37;96057.60;;;5.30
68027;BMP180;54819;48.030;14.710;2024-01-15T12:50:08;96062.00;;;5.30
68027;BMP180;54819;48.030;14.710;2024-01-15T12:52:45;96060.80;;;5.30
68027;BMP180;54819;48.030;14.710;2024-01-15T12:55:14;96062.00;;;5.30
68027;BMP180;54819;48.030;14.710;2024-01-15T12:57:42;96057.80;;;5.40
68027;BMP180;54819;48.030;14.710;2024-01-15T13:00:09;96060.40;;;5.40
68027;BMP180;54819;48.030;14.710;2024-01-15T13:02:41;96067.80;;;5.38
68027;BMP180;54819;48.030;14.710;2024-01-15T13:05:11;96057.80;;;5.40
68027;BMP180;54819;48.030;14.710;2024-01-15T13:07:40;96061.80;;;5.40
68027;BMP180;54819;48.030;14.710;2024-01-15T13:10:07;96061.60;;;5.30
68027;BMP180;54819;48.030;14.710;2024-01-15T13:12:37;96060.20;;;5.30
68027;BMP180;54819;48.030;14.710;2024-01-15T13:15:05;96062.60;;;5.28
68027;BMP180;54819;48.030;14.710;2024-01-15T13:17:32;96062.80;;;5.20
68027;BMP180;54819;48.030;14.710;2024-01-15T13:19:59;96066.60;;;5.20
68027;BMP180;54819;48.030;14.710;2024-01-15T13:22:27;96071.80;;;5.20
68027;BMP180;54819;48.030;14.710;2024-01-15T13:24:59;96072.60;;;5.20
68027;BMP180;54819;48.030;14.710;2024-01-15T13:27:27;96065.80;;;5.10
68027;BMP180;54819;48.030;14.710;2024-01-15T13:29:55;96065.60;;;4.96
68027;BMP180;54819;48.030;14.710;2024-01-15T13:32:25;96064.20;;;4.80
68027;BMP180;54819;48.030;14.710;2024-01-15T13:34:56;96075.40;;;4.80
68027;BMP180;54819;48.030;14.710;2024-01-15T13:37:23;96066.60;;;4.70
68027;BMP180;54819;48.030;14.710;2024-01-15T13:39:54;96072.40;;;4.60
68027;BMP180;54819;48.030;14.710;2024-01-15T13:42:21;96070.80;;;4.60
68027;BMP180;54819;48.030;14.710;2024-01-15T13:44:54;96077.20;;;4.50
68027;BMP180;54819;48.030;14.710;2024-01-15T13:47:21;96079.80;;;4.46
68027;BMP180;54819;48.030;14.710;2024-01-15T13:49:48;96081.40;;;4.40
68027;BMP180;54819;48.030;14.710;2024-01-15T13:52:14;96077.40;;;4.30
68027;BMP180;54819;48.030;14.710;2024-01-15T13:54:41;96077.80;;;4.30
68027;BMP180;54819;48.030;14.710;2024-01-15T13:57:17;96078.80;;;4.30
68027;BMP180;54819;48.030;14.710;2024-01-15T13:59:45;96077.60;;;4.22
68027;BMP180;54819;48.030;14.710;2024-01-15T14:02:13;96082.80;;;4.20
68027;BMP180;54819;48.030;14.710;2024-01-15T14:04:46;96084.80;;;4.20
68027;BMP180;54819;48.030;14.710;2024-01-15T14:07:13;96087.80;;;4.10
68027;BMP180;54819;48.030;14.710;2024-01-15T14:09:40;96072.60;;;4.10
68027;BMP180;54819;48.030;14.710;2024-01-15T14:12:07;96078.60;;;4.10
68027;BMP180;54819;48.030;14.710;2024-01-15T14:14:33;96075.00;;;4.02